createdAt,value
2017-09-17T00:01:01.161Z,0
2017-09-17T00:02:02.527Z,0
2017-09-17T00:03:03.895Z,0
2017-09-17T00:04:05.266Z,0
2017-09-17T00:05:06.628Z,0
2017-09-17T00:06:08.004Z,0
2017-09-17T00:07:09.362Z,0
2017-09-17T00:08:10.732Z,0
2017-09-17T00:09:12.100Z,0
2017-09-17T00:10:13.472Z,0
2017-09-17T00:11:14.838Z,0
2017-09-17T00:12:16.213Z,0
2017-09-17T00:13:17.578Z,0
2017-09-17T00:14:18.947Z,0
2017-09-17T00:15:20.318Z,0
2017-09-17T00:16:21.683Z,0
2017-09-17T00:17:23.052Z,0
2017-09-17T00:18:24.414Z,0
2017-09-17T00:19:25.784Z,0
2017-09-17T00:20:27.152Z,0
2017-09-17T00:21:28.522Z,0
2017-09-17T00:22:29.891Z,0
2017-09-17T00:23:31.262Z,0
2017-09-17T00:24:32.624Z,0
2017-09-17T00:25:33.992Z,0
2017-09-17T00:26:35.359Z,0
2017-09-17T00:27:36.728Z,0
2017-09-17T00:28:38.097Z,0
2017-09-17T00:29:39.470Z,0
2017-09-17T00:30:40.836Z,0
2017-09-17T00:31:42.201Z,0
2017-09-17T00:32:43.584Z,0
2017-09-17T00:33:44.948Z,0
2017-09-17T00:34:46.314Z,0
2017-09-17T00:35:47.684Z,0
2017-09-17T00:36:49.052Z,0
2017-09-17T00:37:50.416Z,0
2017-09-17T00:38:51.783Z,0
2017-09-17T00:39:53.149Z,0
2017-09-17T00:40:54.514Z,0
2017-09-17T00:41:55.881Z,0
2017-09-17T00:42:57.247Z,0
2017-09-17T00:43:58.616Z,0
2017-09-17T00:44:59.984Z,0
2017-09-17T00:46:42.349Z,0
2017-09-17T00:47:43.714Z,0
2017-09-17T00:48:45.082Z,0
2017-09-17T00:49:46.449Z,0
2017-09-17T00:50:47.821Z,0
2017-09-17T00:51:49.192Z,0
2017-09-17T00:52:50.563Z,0
2017-09-17T00:53:51.933Z,0
2017-09-17T00:54:53.301Z,0
2017-09-17T00:55:54.667Z,0
2017-09-17T00:56:56.032Z,0
2017-09-17T00:57:57.398Z,0
2017-09-17T00:58:58.762Z,0
2017-09-17T01:00:00.129Z,0
2017-09-17T01:01:01.498Z,0
2017-09-17T01:02:43.869Z,0
2017-09-17T01:03:45.234Z,0
2017-09-17T01:04:46.602Z,0
2017-09-17T01:05:47.963Z,0
2017-09-17T01:06:49.337Z,0
2017-09-17T01:07:50.702Z,0
2017-09-17T01:08:52.070Z,0
2017-09-17T01:09:53.439Z,0
2017-09-17T01:10:54.803Z,0
2017-09-17T01:11:56.166Z,0
2017-09-17T01:12:57.535Z,0
2017-09-17T01:13:58.902Z,0
2017-09-17T01:15:00.269Z,0
2017-09-17T01:16:01.634Z,0
2017-09-17T01:17:03.004Z,0
2017-09-17T01:18:04.370Z,0
2017-09-17T01:19:05.736Z,0
2017-09-17T01:20:07.099Z,0
2017-09-17T01:21:08.466Z,0
2017-09-17T01:22:09.831Z,0
2017-09-17T01:23:11.200Z,0
2017-09-17T01:24:12.569Z,0
2017-09-17T01:25:13.932Z,0
2017-09-17T01:26:15.301Z,0
2017-09-17T01:27:16.668Z,0
2017-09-17T01:28:18.033Z,0
2017-09-17T01:29:19.398Z,0
2017-09-17T01:30:20.769Z,0
2017-09-17T01:31:22.132Z,0
2017-09-17T01:32:23.498Z,0
2017-09-17T01:33:24.865Z,0
2017-09-17T01:34:26.231Z,0
2017-09-17T01:35:27.599Z,0
2017-09-17T01:36:28.968Z,0
2017-09-17T01:37:30.338Z,0
2017-09-17T01:38:31.702Z,0
2017-09-17T01:39:33.070Z,0
2017-09-17T01:40:34.436Z,0
2017-09-17T01:41:35.799Z,0
2017-09-17T01:42:37.172Z,0
2017-09-17T01:43:38.535Z,0
2017-09-17T01:44:39.903Z,0
2017-09-17T01:45:41.276Z,0
2017-09-17T01:46:42.639Z,0
2017-09-17T01:47:44.008Z,0
2017-09-17T01:48:45.377Z,0
2017-09-17T01:49:46.743Z,0
2017-09-17T01:50:48.107Z,0
2017-09-17T01:51:49.474Z,0
2017-09-17T01:52:50.846Z,0
2017-09-17T01:53:52.208Z,0
2017-09-17T01:54:53.574Z,0
2017-09-17T01:55:54.936Z,0
2017-09-17T01:56:56.303Z,0
2017-09-17T01:57:57.669Z,0
2017-09-17T01:58:59.038Z,0
2017-09-17T02:00:00.402Z,0
2017-09-17T02:01:01.766Z,0
2017-09-17T02:02:03.134Z,0
2017-09-17T02:03:04.501Z,0
2017-09-17T02:04:05.869Z,0
2017-09-17T02:05:07.236Z,0
2017-09-17T02:06:08.604Z,0
2017-09-17T02:07:09.972Z,0
2017-09-17T02:08:11.338Z,0
2017-09-17T02:09:12.701Z,0
2017-09-17T02:10:14.073Z,0
2017-09-17T02:11:15.430Z,0
2017-09-17T02:12:16.800Z,0
2017-09-17T02:13:18.166Z,0
2017-09-17T02:14:19.532Z,0
2017-09-17T02:15:20.913Z,0
2017-09-17T02:16:22.262Z,0
2017-09-17T02:17:23.629Z,0
2017-09-17T02:18:25.001Z,0
2017-09-17T02:19:26.365Z,0
2017-09-17T02:20:27.735Z,0
2017-09-17T02:21:29.096Z,0
2017-09-17T02:22:30.469Z,0
2017-09-17T02:24:12.815Z,0
2017-09-17T02:25:14.178Z,0
2017-09-17T02:26:15.542Z,0
2017-09-17T02:27:16.905Z,0
2017-09-17T02:28:18.275Z,0
2017-09-17T02:29:19.644Z,0
2017-09-17T02:30:21.012Z,0
2017-09-17T02:31:22.381Z,0
2017-09-17T02:32:23.739Z,0
2017-09-17T02:33:25.107Z,0
2017-09-17T02:34:26.482Z,0
2017-09-17T02:35:27.839Z,0
2017-09-17T02:36:29.203Z,0
2017-09-17T02:37:30.575Z,0
2017-09-17T02:38:31.940Z,0
2017-09-17T02:39:33.305Z,0
2017-09-17T02:40:34.671Z,0
2017-09-17T02:41:36.035Z,0
2017-09-17T02:42:37.402Z,0
2017-09-17T02:43:38.767Z,0
2017-09-17T02:44:40.135Z,0
2017-09-17T02:45:41.502Z,0
2017-09-17T02:46:42.867Z,0
2017-09-17T02:47:44.255Z,0
2017-09-17T02:48:45.610Z,0
2017-09-17T02:49:46.977Z,0
2017-09-17T02:50:48.342Z,0
2017-09-17T02:51:49.710Z,0
2017-09-17T02:52:51.078Z,0
2017-09-17T02:53:52.441Z,0
2017-09-17T02:54:53.805Z,0
2017-09-17T02:56:36.166Z,0
2017-09-17T02:57:37.529Z,0
2017-09-17T02:58:38.893Z,0
2017-09-17T02:59:40.260Z,0
2017-09-17T03:00:41.627Z,0
2017-09-17T03:01:42.992Z,0
2017-09-17T03:02:44.357Z,0
2017-09-17T03:03:45.732Z,0
2017-09-17T03:04:47.096Z,0
2017-09-17T03:05:48.470Z,0
2017-09-17T03:06:49.832Z,0
2017-09-17T03:07:51.197Z,0
2017-09-17T03:08:52.561Z,0
2017-09-17T03:09:53.933Z,0
2017-09-17T03:10:55.295Z,0
2017-09-17T03:12:36.662Z,0
2017-09-17T03:13:38.031Z,0
2017-09-17T03:15:01.005Z,0
2017-09-17T03:16:02.371Z,0
2017-09-17T03:17:03.736Z,0
2017-09-17T03:18:05.115Z,0
2017-09-17T03:19:06.482Z,0
2017-09-17T03:20:07.847Z,0
2017-09-17T03:21:09.223Z,0
2017-09-17T03:22:10.580Z,0
2017-09-17T03:23:11.951Z,0
2017-09-17T03:24:13.320Z,0
2017-09-17T03:25:14.680Z,0
2017-09-17T03:26:16.046Z,0
2017-09-17T03:27:17.411Z,0
2017-09-17T03:28:18.779Z,0
2017-09-17T03:29:20.157Z,0
2017-09-17T03:30:21.524Z,0
2017-09-17T03:31:22.892Z,0
2017-09-17T03:32:24.250Z,0
2017-09-17T03:33:25.623Z,0
2017-09-17T03:34:26.991Z,0
2017-09-17T03:35:28.360Z,0
2017-09-17T03:36:29.728Z,0
2017-09-17T03:37:31.092Z,0
2017-09-17T03:38:32.457Z,0
2017-09-17T03:39:33.824Z,0
2017-09-17T03:40:35.201Z,0
2017-09-17T03:41:36.564Z,0
2017-09-17T03:42:37.935Z,0
2017-09-17T03:43:39.305Z,0
2017-09-17T03:45:21.658Z,0
2017-09-17T03:46:23.025Z,0
2017-09-17T03:47:24.387Z,0
2017-09-17T03:48:25.763Z,0
2017-09-17T03:49:27.129Z,0
2017-09-17T03:50:28.497Z,0
2017-09-17T03:51:29.878Z,0
2017-09-17T03:52:31.237Z,0
2017-09-17T03:53:32.596Z,0
2017-09-17T03:54:33.962Z,0
2017-09-17T03:55:35.326Z,0
2017-09-17T03:56:36.695Z,0
2017-09-17T03:57:38.066Z,0
2017-09-17T03:58:39.423Z,0
2017-09-17T03:59:40.802Z,0
2017-09-17T04:00:42.167Z,0
2017-09-17T04:01:43.534Z,0
2017-09-17T04:02:44.903Z,0
2017-09-17T04:03:46.269Z,0
2017-09-17T04:04:47.639Z,0
2017-09-17T04:05:49.007Z,0
2017-09-17T04:06:50.374Z,0
2017-09-17T04:07:51.739Z,0
2017-09-17T04:09:33.098Z,0
2017-09-17T04:10:34.466Z,0
2017-09-17T04:11:57.458Z,0
2017-09-17T04:12:58.822Z,0
2017-09-17T04:14:00.187Z,0
2017-09-17T04:15:01.556Z,0
2017-09-17T04:16:02.926Z,0
2017-09-17T04:17:04.295Z,0
2017-09-17T04:18:05.661Z,0
2017-09-17T04:19:07.030Z,0
2017-09-17T04:20:08.392Z,0
2017-09-17T04:21:09.757Z,0
2017-09-17T04:22:11.124Z,0
2017-09-17T04:23:12.489Z,0
2017-09-17T04:24:13.857Z,0
2017-09-17T04:25:56.207Z,0
2017-09-17T04:26:57.572Z,0
2017-09-17T04:27:58.937Z,0
2017-09-17T04:29:00.304Z,0
2017-09-17T04:30:01.671Z,0
2017-09-17T04:31:03.041Z,0
2017-09-17T04:32:04.406Z,0
2017-09-17T04:33:05.771Z,0
2017-09-17T04:34:07.139Z,0
2017-09-17T04:35:08.506Z,0
2017-09-17T04:36:09.873Z,0
2017-09-17T04:37:11.240Z,4
2017-09-17T04:38:12.606Z,4
2017-09-17T04:39:13.971Z,4
2017-09-17T04:40:15.342Z,0
2017-09-17T04:41:16.711Z,4
2017-09-17T04:42:18.073Z,4
2017-09-17T04:43:19.441Z,4
2017-09-17T04:44:20.805Z,8
2017-09-17T04:45:22.172Z,8
2017-09-17T04:46:23.536Z,8
2017-09-17T04:47:24.913Z,8
2017-09-17T04:48:26.277Z,12
2017-09-17T04:49:27.645Z,16
2017-09-17T04:50:29.016Z,16
2017-09-17T04:51:30.385Z,20
2017-09-17T04:52:31.747Z,24
2017-09-17T04:53:33.119Z,32
2017-09-17T04:54:34.486Z,36
2017-09-17T04:55:35.860Z,40
2017-09-17T04:56:37.224Z,48
2017-09-17T04:57:38.592Z,56
2017-09-17T04:58:39.968Z,68
2017-09-17T04:59:41.336Z,76
2017-09-17T05:00:42.709Z,88
2017-09-17T05:01:44.073Z,104
2017-09-17T05:02:45.441Z,112
2017-09-17T05:03:46.809Z,128
2017-09-17T05:04:48.176Z,144
2017-09-17T05:05:49.548Z,160
2017-09-17T05:06:50.918Z,180
2017-09-17T05:07:52.288Z,200
2017-09-17T05:08:53.658Z,224
2017-09-17T05:09:55.032Z,244
2017-09-17T05:10:56.402Z,272
2017-09-17T05:11:57.772Z,292
2017-09-17T05:12:59.145Z,320
2017-09-17T05:14:00.529Z,348
2017-09-17T05:15:01.900Z,384
2017-09-17T05:16:03.275Z,420
2017-09-17T05:17:04.644Z,452
2017-09-17T05:18:06.014Z,496
2017-09-17T05:19:07.384Z,532
2017-09-17T05:20:08.752Z,572
2017-09-17T05:21:10.123Z,616
2017-09-17T05:22:11.493Z,660
2017-09-17T05:23:12.862Z,700
2017-09-17T05:24:14.231Z,748
2017-09-17T05:25:15.602Z,792
2017-09-17T05:26:16.970Z,848
2017-09-17T05:27:18.343Z,904
2017-09-17T05:28:19.714Z,964
2017-09-17T05:29:21.088Z,1024
2017-09-17T05:30:22.459Z,1092
2017-09-17T05:31:23.830Z,1152
2017-09-17T05:32:25.204Z,1212
2017-09-17T05:33:26.575Z,1272
2017-09-17T05:34:27.950Z,1316
2017-09-17T05:35:29.348Z,1312
2017-09-17T05:36:30.704Z,1332
2017-09-17T05:37:32.077Z,1568
2017-09-17T05:38:33.448Z,1612
2017-09-17T05:39:34.818Z,1828
2017-09-17T05:40:36.190Z,1900
2017-09-17T05:41:37.562Z,1840
2017-09-17T05:42:38.934Z,1740
2017-09-17T05:43:40.306Z,1620
2017-09-17T05:44:41.682Z,1588
2017-09-17T05:46:24.062Z,1640
2017-09-17T05:47:25.452Z,1708
2017-09-17T05:48:26.825Z,1780
2017-09-17T05:49:28.197Z,1860
2017-09-17T05:50:29.569Z,1956
2017-09-17T05:51:30.942Z,2072
2017-09-17T05:52:32.316Z,2208
2017-09-17T05:53:33.693Z,2356
2017-09-17T05:54:35.068Z,2488
2017-09-17T05:55:36.440Z,2632
2017-09-17T05:56:37.816Z,2740
2017-09-17T05:57:39.189Z,2772
2017-09-17T05:58:40.560Z,2748
2017-09-17T05:59:41.935Z,2792
2017-09-17T06:00:43.324Z,2828
2017-09-17T06:01:44.700Z,2888
2017-09-17T06:02:46.077Z,2932
2017-09-17T06:03:47.446Z,3544
2017-09-17T06:04:48.821Z,3968
2017-09-17T06:05:50.197Z,3272
2017-09-17T06:06:51.573Z,3316
2017-09-17T06:07:52.948Z,3344
2017-09-17T06:08:54.336Z,3284
2017-09-17T06:09:55.697Z,3296
2017-09-17T06:10:57.071Z,3344
2017-09-17T06:11:58.443Z,3352
2017-09-17T06:12:59.822Z,3320
2017-09-17T06:14:01.197Z,3164
2017-09-17T06:15:02.571Z,3000
2017-09-17T06:16:03.953Z,2856
2017-09-17T06:17:05.320Z,2664
2017-09-17T06:18:47.691Z,2420
2017-09-17T06:19:49.062Z,2364
2017-09-17T06:20:50.437Z,2316
2017-09-17T06:21:51.811Z,2252
2017-09-17T06:22:53.212Z,2184
2017-09-17T06:23:54.596Z,2132
2017-09-17T06:24:55.968Z,2096
2017-09-17T06:25:57.351Z,2068
2017-09-17T06:26:58.716Z,2064
2017-09-17T06:28:00.104Z,2096
2017-09-17T06:29:01.477Z,2180
2017-09-17T06:30:02.850Z,2292
2017-09-17T06:31:04.231Z,2464
2017-09-17T06:32:05.605Z,2700
2017-09-17T06:33:06.982Z,3028
2017-09-17T06:34:08.357Z,3464
2017-09-17T06:35:09.727Z,3940
2017-09-17T06:36:11.102Z,4344
2017-09-17T06:37:12.476Z,4644
2017-09-17T06:38:13.852Z,4852
2017-09-17T06:39:15.273Z,4940
2017-09-17T06:40:16.642Z,4696
2017-09-17T06:41:18.032Z,4364
2017-09-17T06:42:19.407Z,4016
2017-09-17T06:43:20.780Z,3772
2017-09-17T06:44:22.152Z,3712
2017-09-17T06:45:23.534Z,3828
2017-09-17T06:46:24.918Z,4208
2017-09-17T06:47:26.293Z,4688
2017-09-17T06:48:27.665Z,5172
2017-09-17T06:49:29.040Z,5632
2017-09-17T06:50:30.432Z,6044
2017-09-17T06:51:31.796Z,6316
2017-09-17T06:52:33.171Z,6392
2017-09-17T06:53:34.544Z,6232
2017-09-17T06:54:35.927Z,5928
2017-09-17T06:55:37.304Z,5624
2017-09-17T06:56:38.682Z,5436
2017-09-17T06:57:40.059Z,5472
2017-09-17T06:58:41.445Z,5612
2017-09-17T06:59:42.823Z,5796
2017-09-17T07:00:44.200Z,5956
2017-09-17T07:01:45.577Z,6084
2017-09-17T07:02:46.941Z,6228
2017-09-17T07:03:48.325Z,6300
2017-09-17T07:04:49.703Z,6380
2017-09-17T07:05:51.078Z,6412
2017-09-17T07:06:52.453Z,6396
2017-09-17T07:07:53.832Z,6392
2017-09-17T07:08:55.213Z,6364
2017-09-17T07:09:56.590Z,6372
2017-09-17T07:10:57.962Z,6412
2017-09-17T07:11:59.343Z,6384
2017-09-17T07:13:00.716Z,6296
2017-09-17T07:14:02.090Z,6296
2017-09-17T07:15:03.472Z,6424
2017-09-17T07:16:04.856Z,6564
2017-09-17T07:17:06.231Z,6736
2017-09-17T07:18:07.607Z,6840
2017-09-17T07:19:08.984Z,6808
2017-09-17T07:20:10.365Z,6788
2017-09-17T07:21:11.740Z,6840
2017-09-17T07:22:13.126Z,6804
2017-09-17T07:23:14.517Z,6740
2017-09-17T07:24:15.893Z,6564
2017-09-17T07:25:17.279Z,6252
2017-09-17T07:26:18.672Z,5956
2017-09-17T07:27:20.034Z,5768
2017-09-17T07:28:21.405Z,5760
2017-09-17T07:29:22.785Z,5960
2017-09-17T07:30:24.162Z,6228
2017-09-17T07:31:25.540Z,6452
2017-09-17T07:32:26.915Z,6640
2017-09-17T07:33:28.290Z,6828
2017-09-17T07:34:29.666Z,7012
2017-09-17T07:35:31.051Z,7212
2017-09-17T07:36:32.422Z,7476
2017-09-17T07:37:33.799Z,7624
2017-09-17T07:38:35.187Z,7600
2017-09-17T07:39:36.560Z,7596
2017-09-17T07:40:37.937Z,7556
2017-09-17T07:41:39.314Z,7496
2017-09-17T07:42:40.754Z,7384
2017-09-17T07:43:42.141Z,7216
2017-09-17T07:44:43.517Z,7088
2017-09-17T07:45:44.919Z,7072
2017-09-17T07:46:46.309Z,7156
2017-09-17T07:47:47.685Z,7164
2017-09-17T07:48:49.063Z,7172
2017-09-17T07:49:50.445Z,7152
2017-09-17T07:50:51.821Z,7080
2017-09-17T07:51:53.202Z,7020
2017-09-17T07:52:54.588Z,6984
2017-09-17T07:53:55.958Z,7000
2017-09-17T07:54:57.333Z,7092
2017-09-17T07:55:58.710Z,7244
2017-09-17T07:57:00.085Z,7380
2017-09-17T07:58:01.470Z,7528
2017-09-17T07:59:02.857Z,7660
2017-09-17T08:00:04.245Z,7804
2017-09-17T08:01:05.628Z,7912
2017-09-17T08:02:07.005Z,7932
2017-09-17T08:03:08.382Z,7856
2017-09-17T08:04:09.784Z,7708
2017-09-17T08:05:11.160Z,7548
2017-09-17T08:06:12.549Z,7404
2017-09-17T08:07:13.928Z,7280
2017-09-17T08:08:15.306Z,7152
2017-09-17T08:09:16.684Z,7048
2017-09-17T08:10:18.069Z,6996
2017-09-17T08:12:00.437Z,7128
2017-09-17T08:13:01.899Z,7320
2017-09-17T08:14:03.252Z,7772
2017-09-17T08:15:04.628Z,7876
2017-09-17T08:16:06.010Z,8020
2017-09-17T08:17:07.388Z,8184
2017-09-17T08:18:08.766Z,8312
2017-09-17T08:19:10.142Z,8408
2017-09-17T08:20:11.539Z,8520
2017-09-17T08:21:12.893Z,8660
2017-09-17T08:22:14.274Z,8808
2017-09-17T08:23:15.653Z,9040
2017-09-17T08:24:17.031Z,9376
2017-09-17T08:25:18.466Z,9796
2017-09-17T08:26:19.839Z,10280
2017-09-17T08:27:21.217Z,10820
2017-09-17T08:28:22.589Z,11392
2017-09-17T08:29:24.015Z,11992
2017-09-17T08:30:25.396Z,12636
2017-09-17T08:31:26.785Z,13136
2017-09-17T08:32:28.160Z,13448
2017-09-17T08:33:29.544Z,13688
2017-09-17T08:34:30.932Z,13884
2017-09-17T08:35:32.316Z,13996
2017-09-17T08:36:33.697Z,14068
2017-09-17T08:37:35.080Z,14104
2017-09-17T08:38:36.460Z,14044
2017-09-17T08:39:37.850Z,13952
2017-09-17T08:40:39.228Z,13820
2017-09-17T08:41:40.615Z,13780
2017-09-17T08:43:22.981Z,13780
2017-09-17T08:44:24.357Z,13932
2017-09-17T08:45:25.738Z,14224
2017-09-17T08:46:27.204Z,14548
2017-09-17T08:47:28.583Z,14924
2017-09-17T08:48:29.970Z,15284
2017-09-17T08:49:31.345Z,15588
2017-09-17T08:50:32.721Z,16000
2017-09-17T08:51:34.102Z,16448
2017-09-17T08:52:35.480Z,16992
2017-09-17T08:53:36.859Z,17504
2017-09-17T08:54:38.240Z,17856
2017-09-17T08:55:39.645Z,18208
2017-09-17T08:56:41.008Z,18816
2017-09-17T08:57:42.389Z,19680
2017-09-17T08:58:43.762Z,19584
2017-09-17T08:59:45.178Z,20192
2017-09-17T09:00:46.527Z,21248
2017-09-17T09:01:47.901Z,21184
2017-09-17T09:02:49.282Z,19104
2017-09-17T09:03:50.660Z,18720
2017-09-17T09:04:52.044Z,18752
2017-09-17T09:05:53.424Z,18816
2017-09-17T09:06:54.801Z,18912
2017-09-17T09:07:56.184Z,18880
2017-09-17T09:08:57.571Z,18816
2017-09-17T09:09:58.942Z,18624
2017-09-17T09:11:00.336Z,18432
2017-09-17T09:12:01.719Z,18208
2017-09-17T09:13:03.098Z,17824
2017-09-17T09:14:04.474Z,17536
2017-09-17T09:15:05.867Z,17216
2017-09-17T09:16:07.250Z,16928
2017-09-17T09:17:08.631Z,16416
2017-09-17T09:18:10.001Z,15904
2017-09-17T09:19:11.396Z,15488
2017-09-17T09:20:12.777Z,15288
2017-09-17T09:21:14.153Z,15936
2017-09-17T09:22:15.558Z,18400
2017-09-17T09:23:16.940Z,24192
2017-09-17T09:24:18.353Z,21184
2017-09-17T09:25:19.724Z,23424
2017-09-17T09:26:21.116Z,24448
2017-09-17T09:27:22.494Z,26880
2017-09-17T09:28:23.881Z,26624
2017-09-17T09:29:25.279Z,27200
2017-09-17T09:30:26.641Z,28032
2017-09-17T09:31:28.024Z,29536
2017-09-17T09:32:29.414Z,31648
2017-09-17T09:33:30.789Z,28928
2017-09-17T09:34:32.178Z,27456
2017-09-17T09:35:33.553Z,28160
2017-09-17T09:36:34.937Z,36768
2017-09-17T09:37:36.326Z,35520
2017-09-17T09:38:37.720Z,28512
2017-09-17T09:39:39.102Z,27232
2017-09-17T09:40:40.488Z,25888
2017-09-17T09:41:41.869Z,25184
2017-09-17T09:42:43.249Z,25408
2017-09-17T09:43:44.637Z,25984
2017-09-17T09:44:46.026Z,27744
2017-09-17T09:45:47.440Z,27904
2017-09-17T09:46:48.815Z,29216
2017-09-17T09:47:50.203Z,29696
2017-09-17T09:48:51.590Z,31008
2017-09-17T09:49:52.973Z,32928
2017-09-17T09:50:54.358Z,32928
2017-09-17T09:51:55.754Z,33408
2017-09-17T09:52:57.134Z,31712
2017-09-17T09:53:58.531Z,34080
2017-09-17T09:54:59.905Z,37344
2017-09-17T09:56:01.292Z,49440
2017-09-17T09:57:02.676Z,68384
2017-09-17T09:58:04.065Z,68800
2017-09-17T09:59:05.447Z,84064
2017-09-17T10:00:06.831Z,75648
2017-09-17T10:01:08.231Z,72832
2017-09-17T10:02:09.621Z,61984
2017-09-17T10:03:52.005Z,76512
2017-09-17T10:04:53.390Z,73760
2017-09-17T10:05:54.769Z,75424
2017-09-17T10:06:56.213Z,67456
2017-09-17T10:07:57.569Z,62592
2017-09-17T10:08:58.961Z,71072
2017-09-17T10:10:00.345Z,44768
2017-09-17T10:11:01.755Z,73536
2017-09-17T10:12:03.140Z,53920
2017-09-17T10:13:04.531Z,73664
2017-09-17T10:14:05.917Z,61184
2017-09-17T10:15:07.313Z,71040
2017-09-17T10:16:08.705Z,41504
2017-09-17T10:17:10.087Z,62592
2017-09-17T10:18:11.487Z,67680
2017-09-17T10:19:52.391Z,57344
2017-09-17T10:20:53.793Z,74176
2017-09-17T10:22:16.782Z,65120
2017-09-17T10:23:18.174Z,29760
2017-09-17T10:24:19.565Z,26080
2017-09-17T10:25:20.957Z,24000
2017-09-17T10:26:22.350Z,48352
2017-09-17T10:27:23.742Z,77888
2017-09-17T10:28:25.204Z,73056
2017-09-17T10:29:26.595Z,72064
2017-09-17T10:30:27.987Z,72352
2017-09-17T10:31:29.377Z,70688
2017-09-17T10:32:30.768Z,71840
2017-09-17T10:33:32.164Z,73632
2017-09-17T10:34:33.554Z,74848
2017-09-17T10:35:34.968Z,74464
2017-09-17T10:36:36.361Z,75168
2017-09-17T10:37:37.755Z,76064
2017-09-17T10:38:39.143Z,76704
2017-09-17T10:39:40.540Z,75808
2017-09-17T10:40:41.932Z,75904
2017-09-17T10:41:43.325Z,16268
2017-09-17T10:42:44.718Z,15004
2017-09-17T10:43:46.118Z,46624
2017-09-17T10:44:47.512Z,79584
2017-09-17T10:45:48.904Z,80928
2017-09-17T10:46:50.300Z,79744
2017-09-17T10:47:51.691Z,16640
2017-09-17T10:48:53.085Z,14452
2017-09-17T10:49:54.477Z,14756
2017-09-17T10:50:55.881Z,30496
2017-09-17T10:51:57.271Z,14632
2017-09-17T10:52:58.662Z,12872
2017-09-17T10:54:00.053Z,11396
2017-09-17T10:55:01.443Z,10124
2017-09-17T10:56:02.832Z,16736
2017-09-17T10:57:04.229Z,14068
2017-09-17T10:58:05.614Z,17472
2017-09-17T10:59:07.003Z,20096
2017-09-17T11:00:08.392Z,18880
2017-09-17T11:01:09.779Z,15032
2017-09-17T11:02:11.167Z,13932
2017-09-17T11:03:12.557Z,12720
2017-09-17T11:04:54.991Z,12580
2017-09-17T11:05:56.396Z,12784
2017-09-17T11:06:57.772Z,12652
2017-09-17T11:07:59.157Z,13212
2017-09-17T11:09:00.542Z,14252
2017-09-17T11:10:01.926Z,15364
2017-09-17T11:11:03.310Z,15588
2017-09-17T11:12:04.702Z,15640
2017-09-17T11:13:06.089Z,15660
2017-09-17T11:14:07.470Z,15520
2017-09-17T11:15:08.854Z,15316
2017-09-17T11:16:10.245Z,15008
2017-09-17T11:17:11.629Z,14400
2017-09-17T11:18:13.016Z,13576
2017-09-17T11:19:14.405Z,12428
2017-09-17T11:20:15.789Z,11392
2017-09-17T11:21:17.170Z,10176
2017-09-17T11:22:18.576Z,9032
2017-09-17T11:23:19.963Z,8080
2017-09-17T11:24:21.340Z,7300
2017-09-17T11:25:22.718Z,6724
2017-09-17T11:26:24.114Z,6292
2017-09-17T11:27:25.490Z,5976
2017-09-17T11:28:26.867Z,5780
2017-09-17T11:29:28.253Z,5700
2017-09-17T11:30:29.633Z,5636
2017-09-17T11:31:31.021Z,5664
2017-09-17T11:32:32.402Z,5708
2017-09-17T11:33:33.786Z,5920
2017-09-17T11:34:35.177Z,6304
2017-09-17T11:35:36.559Z,6652
2017-09-17T11:37:18.929Z,6836
2017-09-17T11:38:20.306Z,6736
2017-09-17T11:39:21.688Z,6560
2017-09-17T11:40:23.066Z,6412
2017-09-17T11:41:24.447Z,6232
2017-09-17T11:42:25.830Z,5984
2017-09-17T11:43:27.212Z,5636
2017-09-17T11:44:28.592Z,5208
2017-09-17T11:45:29.985Z,4716
2017-09-17T11:46:31.349Z,4284
2017-09-17T11:47:32.730Z,3900
2017-09-17T11:48:34.108Z,3544
2017-09-17T11:49:35.508Z,3128
2017-09-17T11:50:36.878Z,2628
2017-09-17T11:51:38.267Z,2216
2017-09-17T11:52:39.633Z,1936
2017-09-17T11:53:41.009Z,1780
2017-09-17T11:54:42.388Z,1776
2017-09-17T11:55:43.770Z,1852
2017-09-17T11:56:45.170Z,1972
2017-09-17T11:57:46.548Z,2112
2017-09-17T11:58:47.929Z,2264
2017-09-17T11:59:49.303Z,2452
2017-09-17T12:00:50.682Z,2560
2017-09-17T12:01:52.057Z,2632
2017-09-17T12:02:53.436Z,2668
2017-09-17T12:03:54.816Z,2664
2017-09-17T12:04:56.212Z,2756
2017-09-17T12:05:57.601Z,3020
2017-09-17T12:06:58.982Z,3192
2017-09-17T12:08:00.388Z,3444
2017-09-17T12:09:01.733Z,3608
2017-09-17T12:10:03.114Z,3708
2017-09-17T12:11:04.489Z,3720
2017-09-17T12:12:05.867Z,3684
2017-09-17T12:13:07.252Z,3556
2017-09-17T12:14:08.704Z,3388
2017-09-17T12:15:10.216Z,3216
2017-09-17T12:16:11.563Z,3072
2017-09-17T12:17:12.958Z,2928
2017-09-17T12:18:14.333Z,2804
2017-09-17T12:19:15.830Z,2648
2017-09-17T12:20:17.208Z,2516
2017-09-17T12:21:18.583Z,2448
2017-09-17T12:22:19.962Z,2412
2017-09-17T12:23:21.337Z,2412
2017-09-17T12:24:22.716Z,2404
2017-09-17T12:25:24.092Z,2440
2017-09-17T12:26:25.472Z,2480
2017-09-17T12:27:26.874Z,2540
2017-09-17T12:28:28.253Z,2576
2017-09-17T12:29:29.628Z,2580
2017-09-17T12:30:31.019Z,2596
2017-09-17T12:31:32.905Z,2580
2017-09-17T12:32:34.632Z,2560
2017-09-17T12:33:36.161Z,2564
2017-09-17T12:34:37.549Z,2560
2017-09-17T12:35:38.985Z,2548
2017-09-17T12:36:40.424Z,2560
2017-09-17T12:37:41.807Z,2552
2017-09-17T12:38:43.241Z,2624
2017-09-17T12:39:44.643Z,2608
2017-09-17T12:40:46.425Z,2604
2017-09-17T12:41:47.864Z,2624
2017-09-17T12:42:49.806Z,2648
2017-09-17T12:43:51.564Z,2644
2017-09-17T12:44:53.681Z,2620
2017-09-17T12:45:56.316Z,2576
2017-09-17T12:46:57.982Z,2552
2017-09-17T12:47:59.779Z,2536
2017-09-17T12:49:01.521Z,2500
2017-09-17T12:50:02.931Z,2564
2017-09-17T12:51:04.323Z,2572
2017-09-17T12:52:05.792Z,2668
2017-09-17T12:53:07.449Z,2752
2017-09-17T12:54:09.147Z,2828
2017-09-17T12:55:10.691Z,2908
2017-09-17T12:56:12.167Z,2964
2017-09-17T12:57:13.577Z,3036
2017-09-17T12:58:15.010Z,3108
2017-09-17T12:59:16.567Z,3200
2017-09-17T13:00:17.979Z,3340
2017-09-17T13:01:19.408Z,3548
2017-09-17T13:02:20.919Z,3840
2017-09-17T13:03:22.321Z,4112
2017-09-17T13:04:23.754Z,4388
2017-09-17T13:05:25.142Z,4768
2017-09-17T13:06:27.251Z,5112
2017-09-17T13:07:28.666Z,5448
2017-09-17T13:08:30.062Z,5784
2017-09-17T13:09:32.297Z,6132
2017-09-17T13:10:33.839Z,6612
2017-09-17T13:11:35.249Z,7176
2017-09-17T13:12:36.712Z,7824
2017-09-17T13:13:38.138Z,8584
2017-09-17T13:14:39.842Z,9356
2017-09-17T13:15:41.267Z,10252
2017-09-17T13:16:42.972Z,11124
2017-09-17T13:17:44.463Z,12092
2017-09-17T13:18:46.009Z,13104
2017-09-17T13:19:47.620Z,14392
2017-09-17T13:20:49.928Z,15712
2017-09-17T13:21:52.320Z,16832
2017-09-17T13:22:54.360Z,17760
2017-09-17T13:23:56.450Z,19136
2017-09-17T13:24:58.147Z,28320
2017-09-17T13:25:59.728Z,21760
2017-09-17T13:27:01.177Z,24288
2017-09-17T13:28:02.561Z,29728
2017-09-17T13:29:03.997Z,44928
2017-09-17T13:30:05.448Z,50464
2017-09-17T13:31:06.879Z,52160
2017-09-17T13:32:08.283Z,54272
2017-09-17T13:33:10.343Z,55424
2017-09-17T13:34:12.427Z,54848
2017-09-17T13:35:14.562Z,53696
2017-09-17T13:36:16.104Z,54400
2017-09-17T13:37:18.186Z,51392
2017-09-17T13:38:19.809Z,49024
2017-09-17T13:39:21.473Z,26688
2017-09-17T13:40:22.967Z,29216
2017-09-17T13:41:24.514Z,55968
2017-09-17T13:42:26.406Z,52288
2017-09-17T13:43:27.810Z,46944
2017-09-17T13:44:29.193Z,44800
2017-09-17T13:45:30.836Z,47168
2017-09-17T13:46:32.894Z,19424
2017-09-17T13:47:35.050Z,51712
2017-09-17T13:48:36.610Z,53440
2017-09-17T13:49:38.081Z,26848
2017-09-17T13:50:39.813Z,28896
2017-09-17T13:51:41.350Z,20448
2017-09-17T13:52:43.049Z,34528
2017-09-17T13:53:44.654Z,58208
2017-09-17T13:54:46.704Z,59648
2017-09-17T13:55:48.452Z,60416
2017-09-17T13:56:50.575Z,62816
2017-09-17T13:57:52.033Z,69568
2017-09-17T13:58:53.664Z,74432
2017-09-17T13:59:55.780Z,84544
2017-09-17T14:00:57.713Z,100576
2017-09-17T14:01:59.430Z,114816
2017-09-17T14:03:00.945Z,116512
2017-09-17T14:04:03.009Z,112128
2017-09-17T14:05:04.481Z,107712
2017-09-17T14:06:05.974Z,96416
2017-09-17T14:07:07.407Z,47200
2017-09-17T14:08:08.795Z,19584
2017-09-17T14:09:51.233Z,49440
2017-09-17T14:10:52.627Z,52000
2017-09-17T14:11:55.460Z,12572
2017-09-17T14:12:58.180Z,10548